sensor_id;sensor_type;location;lat;lon;timestamp;pressure;altitude;pressure_sealevel;temperature;humidity
33404;BME280;19751;40.274;18.268;2023-02-01T00:00:32;101694.88;;;8.86;47.30
33404;BME280;19751;40.274;18.268;2023-02-01T00:03:00;101693.72;;;8.88;46.95
33404;BME280;19751;40.274;18.268;2023-02-01T00:05:25;101696.41;;;8.88;47.03
33404;BME280;19751;40.274;18.268;2023-02-01T00:07:51;101702.94;;;8.86;47.39
33404;BME280;19751;40.274;18.268;2023-02-01T00:10:17;101689.81;;;8.83;47.61
33404;BME280;19751;40.274;18.268;2023-02-01T00:12:43;101688.13;;;8.82;48.32
33404;BME280;19751;40.274;18.268;2023-02-01T00:15:09;101685.91;;;8.77;48.25
33404;BME280;19751;40.274;18.268;2023-02-01T00:17:35;101680.53;;;8.77;48.92
33404;BME280;19751;40.274;18.268;2023-02-01T00:20:01;101691.97;;;8.79;48.93
33404;BME280;19751;40.274;18.268;2023-02-01T00:22:27;101692.66;;;8.81;48.95
33404;BME280;19751;40.274;18.268;2023-02-01T00:24:52;101690.13;;;8.80;48.91
33404;BME280;19751;40.274;18.268;2023-02-01T00:27:18;101692.94;;;8.78;48.98
33404;BME280;19751;40.274;18.268;2023-02-01T00:29:46;101702.19;;;8.76;49.09
33404;BME280;19751;40.274;18.268;2023-02-01T00:32:12;101699.50;;;8.76;49.27
33404;BME280;19751;40.274;18.268;2023-02-01T00:34:38;101703.69;;;8.78;49.16
33404;BME280;19751;40.274;18.268;2023-02-01T00:37:03;101702.72;;;8.79;49.53
33404;BME280;19751;40.274;18.268;2023-02-01T00:39:29;101714.44;;;8.78;48.32
33404;BME280;19751;40.274;18.268;2023-02-01T00:41:55;101704.72;;;8.77;48.21
33404;BME280;19751;40.274;18.268;2023-02-01T00:44:20;101703.03;;;8.76;48.22
33404;BME280;19751;40.274;18.268;2023-02-01T00:46:46;101697.66;;;8.76;48.36
33404;BME280;19751;40.274;18.268;2023-02-01T00:49:11;101706.72;;;8.75;48.13
33404;BME280;19751;40.274;18.268;2023-02-01T00:51:37;101704.16;;;8.74;48.11
33404;BME280;19751;40.274;18.268;2023-02-01T00:54:03;101710.72;;;8.71;48.08
33404;BME280;19751;40.274;18.268;2023-02-01T00:56:29;101718.78;;;8.71;47.92
33404;BME280;19751;40.274;18.268;2023-02-01T00:58:55;101721.28;;;8.73;48.21
33404;BME280;19751;40.274;18.268;2023-02-01T01:01:23;101711.38;;;8.73;48.17
33404;BME280;19751;40.274;18.268;2023-02-01T01:03:52;101715.75;;;8.74;48.10
33404;BME280;19751;40.274;18.268;2023-02-01T01:06:26;101712.94;;;8.76;47.96
33404;BME280;19751;40.274;18.268;2023-02-01T01:08:56;101695.81;;;8.77;47.49
33404;BME280;19751;40.274;18.268;2023-02-01T01:11:25;101701.19;;;8.77;47.61
33404;BME280;19751;40.274;18.268;2023-02-01T01:13:53;101694.13;;;8.76;47.20
33404;BME280;19751;40.274;18.268;2023-02-01T01:16:19;101701.34;;;8.75;47.11
33404;BME280;19751;40.274;18.268;2023-02-01T01:18:45;101709.41;;;8.75;46.59
33404;BME280;19751;40.274;18.268;2023-02-01T01:21:13;101699.50;;;8.76;46.30
33404;BME280;19751;40.274;18.268;2023-02-01T01:23:39;101710.06;;;8.77;46.04
33404;BME280;19751;40.274;18.268;2023-02-01T01:26:10;101701.19;;;8.77;45.64
33404;BME280;19751;40.274;18.268;2023-02-01T01:28:37;101725.91;;;8.80;46.16
33404;BME280;19751;40.274;18.268;2023-02-01T01:31:03;101723.88;;;8.82;46.43
33404;BME280;19751;40.274;18.268;2023-02-01T01:33:29;101729.13;;;8.84;46.50
33404;BME280;19751;40.274;18.268;2023-02-01T01:35:55;101719.34;;;8.83;47.15
33404;BME280;19751;40.274;18.268;2023-02-01T01:38:20;101719.53;;;8.81;47.27
33404;BME280;19751;40.274;18.268;2023-02-01T01:40:47;101717.84;;;8.80;47.41
33404;BME280;19751;40.274;18.268;2023-02-01T01:43:15;101697.19;;;8.81;47.20
33404;BME280;19751;40.274;18.268;2023-02-01T01:45:41;101698.03;;;8.81;47.51
33404;BME280;19751;40.274;18.268;2023-02-01T01:48:27;101698.03;;;8.81;47.63
33404;BME280;19751;40.274;18.268;2023-02-01T01:51:03;101697.19;;;8.81;47.97
33404;BME280;19751;40.274;18.268;2023-02-01T01:53:34;101690.81;;;8.82;47.76
33404;BME280;19751;40.274;18.268;2023-02-01T01:56:01;101678.56;;;8.79;48.27
33404;BME280;19751;40.274;18.268;2023-02-01T01:58:28;101674.03;;;8.80;47.96
33404;BME280;19751;40.274;18.268;2023-02-01T02:00:54;101677.38;;;8.82;48.35
33404;BME280;19751;40.274;18.268;2023-02-01T02:03:25;101676.53;;;8.81;48.15
33404;BME280;19751;40.274;18.268;2023-02-01T02:05:53;101674.84;;;8.80;48.71
33404;BME280;19751;40.274;18.268;2023-02-01T02:08:22;101676.84;;;8.78;49.00
33404;BME280;19751;40.274;18.268;2023-02-01T02:10:50;101676.16;;;8.76;49.06
33404;BME280;19751;40.274;18.268;2023-02-01T02:13:34;101674.47;;;8.75;48.94
33404;BME280;19751;40.274;18.268;2023-02-01T02:24:56;101700.81;;;8.71;49.49
33404;BME280;19751;40.274;18.268;2023-02-01T02:30:36;101714.25;;;8.71;50.25
33404;BME280;19751;40.274;18.268;2023-02-01T02:39:19;101718.59;;;8.73;50.39
33404;BME280;19751;40.274;18.268;2023-02-01T02:47:42;101716.09;;;8.71;50.47
33404;BME280;19751;40.274;18.268;2023-02-01T02:50:15;101718.22;;;8.67;50.63
33404;BME280;19751;40.274;18.268;2023-02-01T02:56:02;101718.53;;;8.64;50.59
33404;BME280;19751;40.274;18.268;2023-02-01T02:58:48;101718.28;;;8.58;50.42
33404;BME280;19751;40.274;18.268;2023-02-01T03:01:32;101718.91;;;8.52;50.31
33404;BME280;19751;40.274;18.268;2023-02-01T03:04:16;101718.53;;;8.46;50.56
33404;BME280;19751;40.274;18.268;2023-02-01T03:06:46;101721.19;;;8.46;51.13
33404;BME280;19751;40.274;18.268;2023-02-01T03:09:35;101717.50;;;8.48;51.57
33404;BME280;19751;40.274;18.268;2023-02-01T03:12:08;101723.72;;;8.48;51.06
33404;BME280;19751;40.274;18.268;2023-02-01T03:14:57;101729.38;;;8.45;51.03
33404;BME280;19751;40.274;18.268;2023-02-01T03:17:31;101738.59;;;8.42;51.50
33404;BME280;19751;40.274;18.268;2023-02-01T03:20:01;101743.97;;;8.42;51.17
33404;BME280;19751;40.274;18.268;2023-02-01T03:22:29;101736.06;;;8.41;51.14
33404;BME280;19751;40.274;18.268;2023-02-01T03:25:07;101738.91;;;8.39;51.09
33404;BME280;19751;40.274;18.268;2023-02-01T03:28:05;101746.78;;;8.41;51.15
33404;BME280;19751;40.274;18.268;2023-02-01T03:30:35;101746.34;;;8.45;50.84
33404;BME280;19751;40.274;18.268;2023-02-01T03:33:05;101755.41;;;8.44;51.06
33404;BME280;19751;40.274;18.268;2023-02-01T03:35:50;101748.34;;;8.43;51.53
33404;BME280;19751;40.274;18.268;2023-02-01T03:41:14;101747.63;;;8.41;50.50
33404;BME280;19751;40.274;18.268;2023-02-01T03:43:53;101752.16;;;8.41;50.45
33404;BME280;19751;40.274;18.268;2023-02-01T03:46:29;101759.38;;;8.40;50.46
33404;BME280;19751;40.274;18.268;2023-02-01T03:49:01;101761.94;;;8.42;50.51
33404;BME280;19751;40.274;18.268;2023-02-01T03:51:29;101768.81;;;8.44;50.59
33404;BME280;19751;40.274;18.268;2023-02-01T03:53:55;101770.13;;;8.40;50.97
33404;BME280;19751;40.274;18.268;2023-02-01T03:56:22;101773.69;;;8.31;50.65
33404;BME280;19751;40.274;18.268;2023-02-01T03:58:50;101766.91;;;8.27;50.66
33404;BME280;19751;40.274;18.268;2023-02-01T04:01:28;101765.06;;;8.28;50.89
33404;BME280;19751;40.274;18.268;2023-02-01T04:03:55;101770.16;;;8.31;51.29
33404;BME280;19751;40.274;18.268;2023-02-01T04:06:21;101766.31;;;8.33;50.35
33404;BME280;19751;40.274;18.268;2023-02-01T04:08:47;101768.16;;;8.33;50.92
33404;BME280;19751;40.274;18.268;2023-02-01T04:11:13;101778.75;;;8.34;51.04
33404;BME280;19751;40.274;18.268;2023-02-01T04:13:38;101779.44;;;8.36;51.44
33404;BME280;19751;40.274;18.268;2023-02-01T04:16:05;101777.63;;;8.37;51.06
33404;BME280;19751;40.274;18.268;2023-02-01T04:18:30;101785.53;;;8.38;51.52
33404;BME280;19751;40.274;18.268;2023-02-01T04:20:56;101788.22;;;8.38;51.47
33404;BME280;19751;40.274;18.268;2023-02-01T04:23:21;101781.28;;;8.36;51.36
33404;BME280;19751;40.274;18.268;2023-02-01T04:25:46;101785.41;;;8.30;51.83
33404;BME280;19751;40.274;18.268;2023-02-01T04:28:12;101792.63;;;8.30;51.87
33404;BME280;19751;40.274;18.268;2023-02-01T04:30:38;101789.94;;;8.30;51.81
33404;BME280;19751;40.274;18.268;2023-02-01T04:33:04;101792.47;;;8.31;51.97
33404;BME280;19751;40.274;18.268;2023-02-01T04:35:33;101784.25;;;8.33;52.01
33404;BME280;19751;40.274;18.268;2023-02-01T04:37:59;101777.19;;;8.32;51.77
33404;BME280;19751;40.274;18.268;2023-02-01T04:40:24;101780.59;;;8.34;51.99
33404;BME280;19751;40.274;18.268;2023-02-01T04:42:50;101783.00;;;8.37;51.53
33404;BME280;19751;40.274;18.268;2023-02-01T04:45:15;101789.34;;;8.36;51.65
33404;BME280;19751;40.274;18.268;2023-02-01T04:47:41;101784.97;;;8.35;51.48
33404;BME280;19751;40.274;18.268;2023-02-01T04:50:07;101785.97;;;8.34;51.85
33404;BME280;19751;40.274;18.268;2023-02-01T04:52:36;101789.34;;;8.36;51.94
33404;BME280;19751;40.274;18.268;2023-02-01T04:55:02;101793.72;;;8.37;51.40
33404;BME280;19751;40.274;18.268;2023-02-01T04:57:28;101789.91;;;8.39;51.41
33404;BME280;19751;40.274;18.268;2023-02-01T04:59:53;101795.97;;;8.41;51.93
33404;BME280;19751;40.274;18.268;2023-02-01T05:02:19;101790.59;;;8.41;51.87
33404;BME280;19751;40.274;18.268;2023-02-01T05:04:44;101791.47;;;8.42;51.88
33404;BME280;19751;40.274;18.268;2023-02-01T05:07:10;101794.16;;;8.42;51.88
33404;BME280;19751;40.274;18.268;2023-02-01T05:09:35;101786.22;;;8.40;51.77
33404;BME280;19751;40.274;18.268;2023-02-01T05:12:01;101787.63;;;8.44;51.65
33404;BME280;19751;40.274;18.268;2023-02-01T05:14:45;101795.66;;;8.44;51.86
33404;BME280;19751;40.274;18.268;2023-02-01T05:17:11;101795.00;;;8.42;51.63
33404;BME280;19751;40.274;18.268;2023-02-01T05:19:36;101797.81;;;8.41;52.18
33404;BME280;19751;40.274;18.268;2023-02-01T05:22:02;101797.25;;;8.37;52.21
33404;BME280;19751;40.274;18.268;2023-02-01T05:24:27;101798.97;;;8.38;52.23
33404;BME280;19751;40.274;18.268;2023-02-01T05:26:53;101804.19;;;8.40;52.33
33404;BME280;19751;40.274;18.268;2023-02-01T05:29:19;101805.72;;;8.42;52.44
33404;BME280;19751;40.274;18.268;2023-02-01T05:31:45;101812.22;;;8.40;52.50
33404;BME280;19751;40.274;18.268;2023-02-01T05:34:12;101806.03;;;8.39;52.93
33404;BME280;19751;40.274;18.268;2023-02-01T05:36:37;101809.72;;;8.38;52.62
33404;BME280;19751;40.274;18.268;2023-02-01T05:39:03;101818.59;;;8.39;53.20
33404;BME280;19751;40.274;18.268;2023-02-01T05:41:28;101815.09;;;8.38;53.31
33404;BME280;19751;40.274;18.268;2023-02-01T05:43:54;101817.53;;;8.22;53.58
33404;BME280;19751;40.274;18.268;2023-02-01T05:46:20;101816.47;;;8.05;53.86
33404;BME280;19751;40.274;18.268;2023-02-01T05:48:46;101827.41;;;7.84;55.55
33404;BME280;19751;40.274;18.268;2023-02-01T05:51:12;101819.66;;;7.62;55.91
33404;BME280;19751;40.274;18.268;2023-02-01T05:53:38;101833.78;;;7.44;57.71
33404;BME280;19751;40.274;18.268;2023-02-01T05:56:04;101829.28;;;7.16;59.03
33404;BME280;19751;40.274;18.268;2023-02-01T05:58:30;101819.81;;;6.92;61.44
33404;BME280;19751;40.274;18.268;2023-02-01T06:00:55;101833.63;;;6.78;64.15
33404;BME280;19751;40.274;18.268;2023-02-01T06:03:21;101836.13;;;6.60;66.19
33404;BME280;19751;40.274;18.268;2023-02-01T06:05:47;101838.47;;;6.44;68.70
33404;BME280;19751;40.274;18.268;2023-02-01T06:08:14;101835.28;;;6.29;71.36
33404;BME280;19751;40.274;18.268;2023-02-01T06:10:40;101836.50;;;6.15;73.65
33404;BME280;19751;40.274;18.268;2023-02-01T06:13:05;101835.34;;;6.08;75.69
33404;BME280;19751;40.274;18.268;2023-02-01T06:15:31;101844.03;;;6.01;76.85
33404;BME280;19751;40.274;18.268;2023-02-01T06:17:57;101851.88;;;5.92;78.65
33404;BME280;19751;40.274;18.268;2023-02-01T06:20:24;101850.94;;;5.82;79.91
33404;BME280;19751;40.274;18.268;2023-02-01T06:22:50;101844.66;;;5.72;81.66
33404;BME280;19751;40.274;18.268;2023-02-01T06:25:15;101850.41;;;5.67;82.94
33404;BME280;19751;40.274;18.268;2023-02-01T06:27:42;101861.00;;;5.69;84.07
33404;BME280;19751;40.274;18.268;2023-02-01T06:30:10;101860.84;;;5.70;85.05
33404;BME280;19751;40.274;18.268;2023-02-01T06:32:39;101866.34;;;5.69;85.90
33404;BME280;19751;40.274;18.268;2023-02-01T06:35:07;101863.53;;;5.70;86.55
33404;BME280;19751;40.274;18.268;2023-02-01T06:37:33;101860.91;;;5.59;86.97
33404;BME280;19751;40.274;18.268;2023-02-01T06:39:59;101857.78;;;5.54;88.77
33404;BME280;19751;40.274;18.268;2023-02-01T06:42:25;101861.56;;;5.52;90.04
33404;BME280;19751;40.274;18.268;2023-02-01T06:44:50;101867.16;;;5.48;91.65
33404;BME280;19751;40.274;18.268;2023-02-01T06:47:16;101876.03;;;5.49;92.37
33404;BME280;19751;40.274;18.268;2023-02-01T06:49:42;101873.22;;;5.51;93.55
33404;BME280;19751;40.274;18.268;2023-02-01T06:52:07;101872.81;;;5.55;94.01
33404;BME280;19751;40.274;18.268;2023-02-01T06:54:33;101878.78;;;5.59;94.58
33404;BME280;19751;40.274;18.268;2023-02-01T06:56:59;101872.06;;;5.64;94.71
33404;BME280;19751;40.274;18.268;2023-02-01T06:59:25;101875.19;;;5.69;95.22
33404;BME280;19751;40.274;18.268;2023-02-01T07:01:50;101880.59;;;5.79;95.55
33404;BME280;19751;40.274;18.268;2023-02-01T07:04:16;101879.13;;;5.86;95.52
33404;BME280;19751;40.274;18.268;2023-02-01T07:06:42;101882.38;;;5.90;95.79
33404;BME280;19751;40.274;18.268;2023-02-01T07:09:07;101886.13;;;5.98;96.08
33404;BME280;19751;40.274;18.268;2023-02-01T07:11:34;101892.50;;;6.07;95.98
33404;BME280;19751;40.274;18.268;2023-02-01T07:14:00;101887.09;;;6.18;96.09
33404;BME280;19751;40.274;18.268;2023-02-01T07:16:26;101892.72;;;6.25;95.89
33404;BME280;19751;40.274;18.268;2023-02-01T07:18:52;101889.81;;;6.28;95.86
33404;BME280;19751;40.274;18.268;2023-02-01T07:21:19;101905.59;;;6.31;96.05
33404;BME280;19751;40.274;18.268;2023-02-01T07:23:44;101904.34;;;6.35;96.55
33404;BME280;19751;40.274;18.268;2023-02-01T07:26:12;101909.56;;;6.37;96.46
33404;BME280;19751;40.274;18.268;2023-02-01T07:28:38;101897.88;;;6.38;97.12
33404;BME280;19751;40.274;18.268;2023-02-01T07:31:05;101907.47;;;6.40;97.90
33404;BME280;19751;40.274;18.268;2023-02-01T07:33:31;101911.44;;;6.46;97.97
33404;BME280;19751;40.274;18.268;2023-02-01T07:35:57;101909.34;;;6.50;98.74
33404;BME280;19751;40.274;18.268;2023-02-01T07:38:22;101913.03;;;6.58;98.74
33404;BME280;19751;40.274;18.268;2023-02-01T07:40:49;101916.47;;;6.70;98.79
33404;BME280;19751;40.274;18.268;2023-02-01T07:43:15;101915.09;;;6.85;98.81
33404;BME280;19751;40.274;18.268;2023-02-01T07:45:41;101912.03;;;7.00;98.58
33404;BME280;19751;40.274;18.268;2023-02-01T07:48:06;101908.97;;;7.14;98.15
33404;BME280;19751;40.274;18.268;2023-02-01T07:50:32;101911.41;;;7.27;97.85
33404;BME280;19751;40.274;18.268;2023-02-01T07:52:59;101905.34;;;7.34;96.99
33404;BME280;19751;40.274;18.268;2023-02-01T07:55:25;101909.00;;;7.43;96.46
33404;BME280;19751;40.274;18.268;2023-02-01T07:57:51;101918.59;;;7.45;95.56
33404;BME280;19751;40.274;18.268;2023-02-01T08:00:17;101920.00;;;7.50;95.60
33404;BME280;19751;40.274;18.268;2023-02-01T08:03:03;101913.53;;;7.52;95.46
33404;BME280;19751;40.274;18.268;2023-02-01T08:05:29;101923.41;;;7.61;95.65
33404;BME280;19751;40.274;18.268;2023-02-01T08:07:55;101919.00;;;7.70;95.92
33404;BME280;19751;40.274;18.268;2023-02-01T08:10:20;101914.63;;;7.79;95.95
33404;BME280;19751;40.274;18.268;2023-02-01T08:12:46;101922.69;;;7.88;95.65
33404;BME280;19751;40.274;18.268;2023-02-01T08:15:16;101928.72;;;8.00;95.10
33404;BME280;19751;40.274;18.268;2023-02-01T08:17:48;101931.41;;;8.10;94.91
33404;BME280;19751;40.274;18.268;2023-02-01T08:20:14;101919.94;;;8.17;94.28
33404;BME280;19751;40.274;18.268;2023-02-01T08:22:40;101923.28;;;8.29;94.19
33404;BME280;19751;40.274;18.268;2023-02-01T08:25:06;101922.47;;;8.38;93.37
33404;BME280;19751;40.274;18.268;2023-02-01T08:27:36;101924.56;;;8.44;92.11
33404;BME280;19751;40.274;18.268;2023-02-01T08:30:02;101926.94;;;8.48;91.53
33404;BME280;19751;40.274;18.268;2023-02-01T08:32:28;101922.97;;;8.52;91.17
33404;BME280;19751;40.274;18.268;2023-02-01T08:34:53;101926.06;;;8.57;91.42
33404;BME280;19751;40.274;18.268;2023-02-01T08:37:19;101929.69;;;8.65;90.74
33404;BME280;19751;40.274;18.268;2023-02-01T08:39:45;101930.09;;;8.70;90.28
33404;BME280;19751;40.274;18.268;2023-02-01T08:42:12;101929.69;;;8.75;90.17
33404;BME280;19751;40.274;18.268;2023-02-01T08:44:56;101924.53;;;8.82;88.82
33404;BME280;19751;40.274;18.268;2023-02-01T08:47:22;101924.94;;;8.87;88.91
33404;BME280;19751;40.274;18.268;2023-02-01T08:49:48;101924.19;;;8.94;88.35
33404;BME280;19751;40.274;18.268;2023-02-01T08:52:13;101930.66;;;9.02;87.53
33404;BME280;19751;40.274;18.268;2023-02-01T08:54:39;101931.06;;;9.07;86.74
33404;BME280;19751;40.274;18.268;2023-02-01T08:57:06;101928.63;;;9.13;86.23
33404;BME280;19751;40.274;18.268;2023-02-01T08:59:32;101937.91;;;9.19;86.46
33404;BME280;19751;40.274;18.268;2023-02-01T09:01:57;101945.38;;;9.25;86.59
33404;BME280;19751;40.274;18.268;2023-02-01T09:04:23;101940.41;;;9.30;86.51
33404;BME280;19751;40.274;18.268;2023-02-01T09:06:48;101944.31;;;9.36;85.85
33404;BME280;19751;40.274;18.268;2023-02-01T09:09:14;101938.34;;;9.42;85.21
33404;BME280;19751;40.274;18.268;2023-02-01T09:11:40;101939.38;;;9.49;85.13
33404;BME280;19751;40.274;18.268;2023-02-01T09:14:05;101925.47;;;9.54;85.10
33404;BME280;19751;40.274;18.268;2023-02-01T09:16:31;101940.84;;;9.61;85.06
33404;BME280;19751;40.274;18.268;2023-02-01T09:18:57;101939.25;;;9.68;84.52
33404;BME280;19751;40.274;18.268;2023-02-01T09:21:23;101935.09;;;9.74;82.71
33404;BME280;19751;40.274;18.268;2023-02-01T09:23:51;101948.94;;;9.79;79.90
33404;BME280;19751;40.274;18.268;2023-02-01T09:26:16;101945.91;;;9.82;78.09
33404;BME280;19751;40.274;18.268;2023-02-01T09:28:42;101940.06;;;9.87;77.71
33404;BME280;19751;40.274;18.268;2023-02-01T09:31:08;101943.16;;;9.92;77.44
33404;BME280;19751;40.274;18.268;2023-02-01T09:33:33;101948.69;;;9.90;75.67
33404;BME280;19751;40.274;18.268;2023-02-01T09:36:02;101953.47;;;9.96;76.27
33404;BME280;19751;40.274;18.268;2023-02-01T09:38:28;101946.59;;;10.02;76.31
33404;BME280;19751;40.274;18.268;2023-02-01T09:40:54;101946.13;;;10.07;76.31
33404;BME280;19751;40.274;18.268;2023-02-01T09:43:45;101944.13;;;10.09;73.32
33404;BME280;19751;40.274;18.268;2023-02-01T09:46:23;101954.91;;;10.09;72.13
33404;BME280;19751;40.274;18.268;2023-02-01T09:48:54;101946.66;;;10.10;70.26
33404;BME280;19751;40.274;18.268;2023-02-01T09:51:25;101951.44;;;10.16;68.10
33404;BME280;19751;40.274;18.268;2023-02-01T09:54:19;101947.56;;;10.19;64.73
33404;BME280;19751;40.274;18.268;2023-02-01T09:56:49;101946.81;;;10.27;64.85
33404;BME280;19751;40.274;18.268;2023-02-01T10:02:22;101948.78;;;10.42;69.01
33404;BME280;19751;40.274;18.268;2023-02-01T10:04:49;101939.66;;;10.43;69.21
33404;BME280;19751;40.274;18.268;2023-02-01T10:07:30;101942.22;;;10.45;71.01
33404;BME280;19751;40.274;18.268;2023-02-01T10:10:26;101940.50;;;10.44;71.79
33404;BME280;19751;40.274;18.268;2023-02-01T10:15:46;101925.72;;;10.48;68.08
33404;BME280;19751;40.274;18.268;2023-02-01T10:23:43;101921.72;;;10.52;62.56
33404;BME280;19751;40.274;18.268;2023-02-01T10:26:20;101910.78;;;10.54;62.25
33404;BME280;19751;40.274;18.268;2023-02-01T10:28:50;101918.38;;;10.58;61.25
33404;BME280;19751;40.274;18.268;2023-02-01T10:31:17;101909.13;;;10.61;61.51
33404;BME280;19751;40.274;18.268;2023-02-01T10:33:50;101902.25;;;10.66;61.59
33404;BME280;19751;40.274;18.268;2023-02-01T10:36:28;101898.38;;;10.69;62.06
33404;BME280;19751;40.274;18.268;2023-02-01T10:38:56;101901.59;;;10.73;61.92
33404;BME280;19751;40.274;18.268;2023-02-01T10:41:22;101899.75;;;10.73;60.98
33404;BME280;19751;40.274;18.268;2023-02-01T10:43:55;101894.22;;;10.75;59.62
33404;BME280;19751;40.274;18.268;2023-02-01T10:46:25;101890.69;;;10.74;57.96
33404;BME280;19751;40.274;18.268;2023-02-01T10:48:53;101892.19;;;10.77;58.49
33404;BME280;19751;40.274;18.268;2023-02-01T10:51:28;101888.47;;;10.78;59.33
33404;BME280;19751;40.274;18.268;2023-02-01T10:54:00;101884.94;;;10.77;59.17
33404;BME280;19751;40.274;18.268;2023-02-01T10:56:28;101881.22;;;10.78;59.38
33404;BME280;19751;40.274;18.268;2023-02-01T10:59:06;101874.00;;;10.79;59.02
33404;BME280;19751;40.274;18.268;2023-02-01T11:01:39;101872.31;;;10.78;58.26
33404;BME280;19751;40.274;18.268;2023-02-01T11:04:11;101868.44;;;10.80;58.95
33404;BME280;19751;40.274;18.268;2023-02-01T11:06:44;101863.38;;;10.77;57.74
33404;BME280;19751;40.274;18.268;2023-02-01T11:09:16;101864.59;;;10.83;58.19
33404;BME280;19751;40.274;18.268;2023-02-01T11:11:55;101855.63;;;10.82;57.44
33404;BME280;19751;40.274;18.268;2023-02-01T11:16:58;101851.16;;;10.91;57.59
33404;BME280;19751;40.274;18.268;2023-02-01T11:19:24;101847.94;;;10.95;57.74
33404;BME280;19751;40.274;18.268;2023-02-01T11:21:53;101839.03;;;10.95;56.54
33404;BME280;19751;40.274;18.268;2023-02-01T11:24:29;101840.53;;;10.98;56.45
33404;BME280;19751;40.274;18.268;2023-02-01T11:26:57;101833.97;;;11.00;56.67
33404;BME280;19751;40.274;18.268;2023-02-01T11:29:24;101833.97;;;11.00;56.54
33404;BME280;19751;40.274;18.268;2023-02-01T11:31:59;101838.16;;;11.03;56.45
33404;BME280;19751;40.274;18.268;2023-02-01T11:34:29;101838.16;;;11.03;55.71
33404;BME280;19751;40.274;18.268;2023-02-01T11:37:00;101825.91;;;11.08;55.60
33404;BME280;19751;40.274;18.268;2023-02-01T11:39:34;101819.16;;;11.12;55.63
33404;BME280;19751;40.274;18.268;2023-02-01T11:42:05;101818.16;;;11.13;56.10
33404;BME280;19751;40.274;18.268;2023-02-01T11:49:47;101818.31;;;11.12;56.18
33404;BME280;19751;40.274;18.268;2023-02-01T11:58:16;101795.75;;;11.13;54.87
33404;BME280;19751;40.274;18.268;2023-02-01T12:03:49;101784.63;;;11.16;54.58
33404;BME280;19751;40.274;18.268;2023-02-01T12:06:44;101775.66;;;11.15;55.08
33404;BME280;19751;40.274;18.268;2023-02-01T12:11:49;101790.34;;;11.21;55.41
33404;BME280;19751;40.274;18.268;2023-02-01T12:22:39;101769.78;;;11.36;55.21
33404;BME280;19751;40.274;18.268;2023-02-01T12:38:46;101755.28;;;11.37;53.61
33404;BME280;19751;40.274;18.268;2023-02-01T12:44:18;101761.69;;;11.36;54.37
33404;BME280;19751;40.274;18.268;2023-02-01T12:50:06;101750.41;;;11.41;55.11
33404;BME280;19751;40.274;18.268;2023-02-01T12:52:46;101752.91;;;11.42;55.53
33404;BME280;19751;40.274;18.268;2023-02-01T12:55:34;101759.16;;;11.43;55.31
33404;BME280;19751;40.274;18.268;2023-02-01T13:01:40;101754.25;;;11.47;54.63
33404;BME280;19751;40.274;18.268;2023-02-01T13:04:17;101750.22;;;11.51;54.58
33404;BME280;19751;40.274;18.268;2023-02-01T13:07:01;101746.47;;;11.52;54.74
33404;BME280;19751;40.274;18.268;2023-02-01T13:12:53;101753.56;;;11.53;54.60
33404;BME280;19751;40.274;18.268;2023-02-01T13:15:36;101750.72;;;11.54;54.50
33404;BME280;19751;40.274;18.268;2023-02-01T13:18:05;101751.53;;;11.55;54.64
33404;BME280;19751;40.274;18.268;2023-02-01T13:20:44;101755.09;;;11.55;54.70
33404;BME280;19751;40.274;18.268;2023-02-01T13:23:26;101746.16;;;11.55;54.89
33404;BME280;19751;40.274;18.268;2023-02-01T13:25:53;101752.56;;;11.54;54.96
33404;BME280;19751;40.274;18.268;2023-02-01T13:28:44;101755.25;;;11.54;54.32
33404;BME280;19751;40.274;18.268;2023-02-01T13:33:55;101754.06;;;11.56;54.01
33404;BME280;19751;40.274;18.268;2023-02-01T13:36:43;101754.56;;;11.60;54.04
33404;BME280;19751;40.274;18.268;2023-02-01T13:44:39;101748.84;;;11.63;53.15
33404;BME280;19751;40.274;18.268;2023-02-01T13:52:51;101749.34;;;11.58;52.74
33404;BME280;19751;40.274;18.268;2023-02-01T13:57:49;101748.84;;;11.63;53.21
33404;BME280;19751;40.274;18.268;2023-02-01T14:00:33;101755.56;;;11.67;52.25
33404;BME280;19751;40.274;18.268;2023-02-01T14:08:11;101749.63;;;11.80;52.15
33404;BME280;19751;40.274;18.268;2023-02-01T14:10:57;101757.94;;;11.86;52.02
33404;BME280;19751;40.274;18.268;2023-02-01T14:13:39;101747.59;;;11.90;52.10
33404;BME280;19751;40.274;18.268;2023-02-01T14:23:46;101746.75;;;11.81;51.72
33404;BME280;19751;40.274;18.268;2023-02-01T14:26:41;101745.25;;;11.79;52.10
33404;BME280;19751;40.274;18.268;2023-02-01T14:29:24;101742.91;;;11.76;52.34
33404;BME280;19751;40.274;18.268;2023-02-01T14:34:21;101733.97;;;11.75;52.82
33404;BME280;19751;40.274;18.268;2023-02-01T14:36:54;101735.81;;;11.75;53.08
33404;BME280;19751;40.274;18.268;2023-02-01T14:39:36;101731.59;;;11.72;52.95
33404;BME280;19751;40.274;18.268;2023-02-01T14:42:20;101732.44;;;11.73;53.43
33404;BME280;19751;40.274;18.268;2023-02-01T14:44:51;101739.53;;;11.74;53.24
33404;BME280;19751;40.274;18.268;2023-02-01T14:52:32;101749.34;;;11.83;54.15
33404;BME280;19751;40.274;18.268;2023-02-01T14:55:04;101744.25;;;11.80;54.04
33404;BME280;19751;40.274;18.268;2023-02-01T14:57:33;101741.72;;;11.78;53.65
33404;BME280;19751;40.274;18.268;2023-02-01T15:00:20;101737.00;;;11.72;54.21
33404;BME280;19751;40.274;18.268;2023-02-01T15:02:48;101744.44;;;11.70;54.05
33404;BME280;19751;40.274;18.268;2023-02-01T15:05:31;101749.00;;;11.69;54.28
33404;BME280;19751;40.274;18.268;2023-02-01T15:08:02;101751.50;;;11.71;54.41
33404;BME280;19751;40.274;18.268;2023-02-01T15:10:31;101747.78;;;11.72;54.77
33404;BME280;19751;40.274;18.268;2023-02-01T15:12:57;101750.50;;;11.72;54.75